Hauptseite
METAR-TAF:

METAR-TAF

Flughäfen :

Longyearbyen, Norwegen

Flughafen Longyearbyen

Breite: 78-15N, Länge: 015-28E, Höhe: 2 m

Beobachtung

Neuester Wetterbericht von vor 34 Minuten, um 17:50 UTC
Wind 7 kt aus Nordwest
Temperatur -6°C
Luftfeuchtigkeit 58%
Luftdruck 1010 hPa
Sichtweite 10 km oder mehr
Aufgelockert bewölkt in der Höhe von 2500 ft

METAR: ENSB 221750Z 31007KT 9999 SCT025 M06/M13 Q1010 RMK WIND 1400FT 28009KT

Zeit: 20:24 (18:24 UTC)

Prognose

Gültige Prognose vom 22 um 18 UTC bis 23 um 18 UTC
Wind 8 kt aus West
Sichtweite 10 km oder mehr
Leicht bewölkt in der Höhe von 2000 ft
Durchbrochene Bewölkung in der Höhe von 3000 ft
Zeitweise
vom 23 um 06 UTC bis 23 um 18 UTC
Wind 12 kt aus Ost/Südost

TAF: ENSB 2218/2318 28008KT 9999 FEW020 BKN030 TEMPO 2306/2318 12012KT

Wetterbeobachtungen und Prognosen von mehr als 4000 Flughäfen (METAR und TAF Bericht).

Die verfügbaren Stationen werden durch gelbe und rote Markierungen auf der Karte dargestellt.

Führen Sie die Maus auf sie, um den Namen der Station zu sehen.

Darauf klicken, um die Beobachtung von Wetterbeobachtungen und Prognosen zu sehen.

Um die Karte zu ändern : klicken Sie auf den grünen Tasten mit einem schwarzen Kreuz Zum Vergrößern, auf den grünen Button mit einem Gedankenstrich zu verkleinern, oder auf die grünen Pfeile für benachbarte Karten.


METAR-TAF: